Time;durP1;ratioP1;P1;durP2;ratioP2;P2;SDS_P1;SDS_P2;PMS_P1;PMS_P2;Temp;Humidity;BMP_temperature;BMP_pressure;BME280_temperature;BME280_humidity;BME280_pressure;Samples;Min_cycle;Max_cycle;Signal;HPM_P1;HPM_P2
2021/03/08 00:01:08;;;;;;;10.77;3.00;;;8.80;76.50;;;;;;5105862;28;20448;-71
2021/03/08 00:03:33;;;;;;;23.30;3.05;;;8.80;76.40;;;;;;5110146;28;20038;-70
2021/03/08 00:05:59;;;;;;;9.70;2.65;;;8.80;76.40;;;;;;5115187;28;20040;-70
2021/03/08 00:08:24;;;;;;;14.48;3.00;;;8.90;76.50;;;;;;5114581;28;20032;-70
2021/03/08 00:10:50;;;;;;;13.20;2.65;;;8.80;76.40;;;;;;5114735;28;20023;-70
2021/03/08 00:13:16;;;;;;;12.60;2.75;;;8.90;76.40;;;;;;5115003;28;20031;-70
2021/03/08 00:15:41;;;;;;;9.13;2.30;;;8.80;76.30;;;;;;5114266;28;20069;-71
2021/03/08 00:18:07;;;;;;;16.77;2.60;;;8.90;76.30;;;;;;5115217;28;20534;-71
2021/03/08 00:20:33;;;;;;;8.18;2.25;;;8.90;76.30;;;;;;5114878;28;20023;-70
2021/03/08 00:22:59;;;;;;;11.73;2.28;;;8.90;76.20;;;;;;5114129;28;20027;-70
2021/03/08 00:25:31;;;;;;;10.65;2.38;;;8.90;76.20;;;;;;5114697;28;20055;-71
2021/03/08 00:27:57;;;;;;;20.13;2.33;;;8.90;76.20;;;;;;5114325;28;20047;-70
2021/03/08 00:30:23;;;;;;;20.70;2.83;;;8.90;76.20;;;;;;5114159;28;20027;-70
2021/03/08 00:32:49;;;;;;;15.95;2.40;;;8.90;76.20;;;;;;5114650;28;20027;-70
2021/03/08 00:35:16;;;;;;;10.85;2.22;;;8.90;76.20;;;;;;5114534;28;20386;-70
2021/03/08 00:37:42;;;;;;;10.57;2.35;;;8.90;76.20;;;;;;5114066;28;20031;-70
2021/03/08 00:40:13;;;;;;;12.30;2.55;;;8.90;76.10;;;;;;5114416;27;20030;-70
2021/03/08 00:42:40;;;;;;;11.45;3.17;;;8.90;76.00;;;;;;5112612;28;20458;-70
2021/03/08 00:45:17;;;;;;;9.00;1.70;;;8.90;76.00;;;;;;5099397;28;20036;-70
2021/03/08 00:47:46;;;;;;;9.27;2.40;;;8.90;76.00;;;;;;5114538;28;20403;-70
2021/03/08 00:50:18;;;;;;;10.68;2.20;;;8.90;75.90;;;;;;5111992;28;20035;-70
2021/03/08 00:52:44;;;;;;;11.80;2.53;;;8.90;75.90;;;;;;5113092;28;20024;-70
2021/03/08 00:55:15;;;;;;;8.82;2.28;;;8.90;75.80;;;;;;5112871;28;20030;-70
2021/03/08 00:57:41;;;;;;;24.83;2.63;;;8.90;75.80;;;;;;5112460;28;20023;-70
2021/03/08 01:00:09;;;;;;;18.63;2.30;;;8.90;75.80;;;;;;5111816;28;20028;-69
2021/03/08 01:02:39;;;;;;;10.43;2.78;;;8.90;75.90;;;;;;5101442;28;20430;-69
2021/03/08 01:05:11;;;;;;;15.02;3.90;;;9.00;75.90;;;;;;5097337;28;20063;-70
2021/03/08 01:07:37;;;;;;;10.55;2.83;;;9.00;75.90;;;;;;5104794;28;20051;-70
2021/03/08 01:10:12;;;;;;;13.10;2.72;;;8.90;75.80;;;;;;5112188;28;20489;-70
2021/03/08 01:12:38;;;;;;;9.68;1.73;;;8.90;75.80;;;;;;5113567;28;20032;-70
2021/03/08 01:15:06;;;;;;;14.48;2.20;;;8.90;75.70;;;;;;5112532;28;20478;-70
2021/03/08 01:17:32;;;;;;;10.27;2.42;;;8.90;75.80;;;;;;5113299;28;20536;-70
2021/03/08 01:19:58;;;;;;;14.68;3.08;;;8.90;75.70;;;;;;5113349;28;20040;-70
2021/03/08 01:22:23;;;;;;;16.65;2.80;;;8.90;75.80;;;;;;5113770;28;20035;-70
2021/03/08 01:24:49;;;;;;;15.55;3.03;;;8.90;75.70;;;;;;5112954;28;20031;-70
2021/03/08 01:27:15;;;;;;;16.77;2.30;;;8.90;75.60;;;;;;5113285;28;20482;-70
2021/03/08 01:29:40;;;;;;;18.50;3.13;;;8.90;75.60;;;;;;5107244;28;20406;-70
2021/03/08 01:32:06;;;;;;;18.73;2.67;;;8.90;75.60;;;;;;5104887;28;20372;-70
2021/03/08 01:34:32;;;;;;;12.80;3.15;;;8.80;75.60;;;;;;5113256;28;20352;-70
2021/03/08 01:36:58;;;;;;;12.40;2.38;;;8.80;75.60;;;;;;5113607;28;20397;-70
2021/03/08 01:39:23;;;;;;;12.57;2.83;;;8.80;75.70;;;;;;5112547;28;20475;-70
2021/03/08 01:41:49;;;;;;;11.13;2.88;;;8.80;75.60;;;;;;5102043;28;20032;-70
2021/03/08 01:44:15;;;;;;;14.55;3.15;;;8.80;75.70;;;;;;5113383;28;20645;-70
2021/03/08 01:46:40;;;;;;;9.75;3.13;;;8.80;75.70;;;;;;5110139;28;20046;-70
2021/03/08 01:49:09;;;;;;;18.45;3.00;;;8.80;75.70;;;;;;5101097;28;20038;-70
2021/03/08 01:51:35;;;;;;;16.92;3.05;;;8.80;75.70;;;;;;5113250;28;20031;-70
2021/03/08 01:54:01;;;;;;;22.27;3.55;;;8.70;75.70;;;;;;5112434;28;20034;-70
2021/03/08 01:56:27;;;;;;;13.05;2.47;;;8.70;75.80;;;;;;5113138;28;20047;-70
2021/03/08 01:58:53;;;;;;;23.58;4.65;;;8.70;75.90;;;;;;5113081;28;20039;-70
2021/03/08 02:01:18;;;;;;;17.90;3.08;;;8.70;75.90;;;;;;5112342;28;20035;-70
2021/03/08 02:03:44;;;;;;;13.98;2.58;;;8.60;75.90;;;;;;5098644;28;20026;-70
2021/03/08 02:06:10;;;;;;;9.65;2.30;;;8.60;75.90;;;;;;5113039;28;20487;-70
2021/03/08 02:08:38;;;;;;;13.20;2.38;;;8.60;75.90;;;;;;5112495;28;20028;-70
2021/03/08 02:11:06;;;;;;;15.32;2.65;;;8.60;76.00;;;;;;5112839;28;20371;-70
2021/03/08 02:14:12;;;;;;;14.63;3.33;;;8.60;76.00;;;;;;5112836;28;20093;-70
2021/03/08 02:17:02;;;;;;;11.02;2.70;;;8.60;76.10;;;;;;5103552;28;20084;-70
2021/03/08 02:20:05;;;;;;;22.60;3.03;;;8.60;75.90;;;;;;5113124;28;20031;-70
2021/03/08 02:22:55;;;;;;;19.20;2.97;;;8.60;75.90;;;;;;5112219;28;20368;-70
2021/03/08 02:25:38;;;;;;;14.68;2.58;;;8.70;75.80;;;;;;5109353;28;20482;-71
2021/03/08 02:28:39;;;;;;;13.65;2.42;;;8.60;75.80;;;;;;5102990;28;20052;-70
2021/03/08 02:31:08;;;;;;;14.68;2.83;;;8.60;75.80;;;;;;5117322;28;20102;-70
2021/03/08 02:33:35;;;;;;;23.27;3.72;;;8.60;75.70;;;;;;5117122;27;20130;-70
2021/03/08 02:36:05;;;;;;;11.40;2.38;;;8.60;75.80;;;;;;5116258;28;20059;-70
2021/03/08 02:38:35;;;;;;;16.88;2.88;;;8.60;75.80;;;;;;5116865;28;20020;-70
2021/03/08 02:41:29;;;;;;;12.02;2.92;;;8.60;75.80;;;;;;5116847;28;20040;-70
2021/03/08 02:44:02;;;;;;;11.77;2.80;;;8.60;75.90;;;;;;5114723;28;20042;-70
2021/03/08 02:46:31;;;;;;;9.40;2.50;;;8.60;75.70;;;;;;5116619;28;20043;-70
2021/03/08 02:49:01;;;;;;;11.07;2.70;;;8.60;75.70;;;;;;5116487;28;20114;-70
2021/03/08 02:51:30;;;;;;;13.85;3.38;;;8.60;75.60;;;;;;5116686;28;20036;-70
2021/03/08 02:53:58;;;;;;;12.35;2.75;;;8.60;75.30;;;;;;5116484;28;20024;-70
2021/03/08 02:56:30;;;;;;;16.52;2.13;;;8.60;75.00;;;;;;5116088;28;20027;-70
2021/03/08 02:58:57;;;;;;;9.80;2.17;;;8.60;74.70;;;;;;5116445;28;20023;-70
2021/03/08 03:01:25;;;;;;;14.77;2.97;;;8.60;74.50;;;;;;5116553;28;20122;-70
2021/03/08 03:03:54;;;;;;;19.92;2.63;;;8.60;74.10;;;;;;5115607;28;20035;-70
2021/03/08 03:06:23;;;;;;;14.57;2.40;;;8.60;73.80;;;;;;5116628;27;20050;-70
2021/03/08 03:08:49;;;;;;;11.55;2.00;;;8.60;73.50;;;;;;5116285;28;20026;-70
2021/03/08 03:11:15;;;;;;;10.32;2.00;;;8.60;73.30;;;;;;5115607;28;20039;-70
2021/03/08 03:13:44;;;;;;;16.17;2.65;;;8.50;72.90;;;;;;5116097;28;20034;-70
2021/03/08 03:16:11;;;;;;;25.65;3.33;;;8.60;72.70;;;;;;5116308;28;20028;-70
2021/03/08 03:18:38;;;;;;;11.48;2.58;;;8.50;72.40;;;;;;5103305;28;20123;-70
2021/03/08 03:21:06;;;;;;;14.27;2.75;;;8.50;72.00;;;;;;5115450;28;20372;-70
2021/03/08 03:23:36;;;;;;;15.02;2.30;;;8.50;71.70;;;;;;5115870;28;20024;-70
2021/03/08 03:26:04;;;;;;;11.50;2.42;;;8.50;71.50;;;;;;5115472;28;20076;-70
2021/03/08 03:28:30;;;;;;;18.02;2.85;;;8.50;71.30;;;;;;5115670;28;20160;-70
2021/03/08 03:30:58;;;;;;;12.48;2.05;;;8.40;71.20;;;;;;5115625;28;20154;-70
2021/03/08 03:33:24;;;;;;;12.20;2.05;;;8.40;71.20;;;;;;5115139;28;20036;-70
2021/03/08 03:36:00;;;;;;;16.05;2.88;;;8.50;71.20;;;;;;5115670;28;20042;-70
2021/03/08 03:38:26;;;;;;;12.05;2.05;;;8.40;70.90;;;;;;5115104;28;20035;-70
2021/03/08 03:40:52;;;;;;;9.38;1.98;;;8.40;70.80;;;;;;5115750;28;20024;-70
2021/03/08 03:43:18;;;;;;;25.38;3.08;;;8.40;71.30;;;;;;5115423;28;20387;-70
2021/03/08 03:45:44;;;;;;;9.38;1.88;;;8.30;70.60;;;;;;5114877;28;20036;-70
2021/03/08 03:48:10;;;;;;;17.58;2.55;;;8.30;70.70;;;;;;5115291;28;20035;-70
2021/03/08 03:50:37;;;;;;;8.50;1.90;;;8.30;70.80;;;;;;5115767;28;20128;-70
2021/03/08 03:53:08;;;;;;;9.68;2.20;;;8.30;70.80;;;;;;5114845;28;20023;-70
2021/03/08 03:55:35;;;;;;;9.15;1.55;;;8.30;70.80;;;;;;5115415;28;20027;-70
2021/03/08 03:58:20;;;;;;;13.25;1.90;;;8.30;70.90;;;;;;5113844;28;20046;-70
2021/03/08 04:01:00;;;;;;;18.58;2.42;;;8.30;70.70;;;;;;5110273;28;20459;-70
2021/03/08 04:03:53;;;;;;;17.67;2.30;;;8.30;70.50;;;;;;5115221;28;20092;-70
2021/03/08 04:06:20;;;;;;;9.60;1.63;;;8.30;70.50;;;;;;5101982;28;20042;-70
2021/03/08 04:08:50;;;;;;;8.40;1.75;;;8.30;70.50;;;;;;5114862;28;20024;-70
2021/03/08 04:11:18;;;;;;;13.70;1.75;;;8.30;70.50;;;;;;5115327;28;20032;-70
2021/03/08 04:13:46;;;;;;;9.75;1.80;;;8.30;70.50;;;;;;5114394;28;20719;-70
2021/03/08 04:16:14;;;;;;;13.98;2.50;;;8.30;70.50;;;;;;5114971;28;20028;-70
2021/03/08 04:18:42;;;;;;;15.18;2.80;;;8.30;70.60;;;;;;5114822;28;20547;-70
2021/03/08 04:21:10;;;;;;;18.20;2.17;;;8.30;70.70;;;;;;5114215;28;20031;-71
2021/03/08 04:23:38;;;;;;;11.60;2.60;;;8.20;70.70;;;;;;5114742;28;20058;-70
2021/03/08 04:26:06;;;;;;;15.18;2.55;;;8.30;70.80;;;;;;5114806;28;20043;-70
2021/03/08 04:28:33;;;;;;;12.05;2.10;;;8.30;70.70;;;;;;5113856;28;20082;-70
2021/03/08 04:30:59;;;;;;;11.65;1.98;;;8.30;70.60;;;;;;5114760;27;20093;-70
2021/03/08 04:33:26;;;;;;;16.60;2.65;;;8.30;70.50;;;;;;5114621;28;20031;-70
2021/03/08 04:35:55;;;;;;;10.70;1.85;;;8.30;70.50;;;;;;5111355;28;20037;-70
2021/03/08 04:38:21;;;;;;;8.38;2.03;;;8.30;70.60;;;;;;5114785;28;20031;-70
2021/03/08 04:40:50;;;;;;;19.67;2.70;;;8.30;70.40;;;;;;5114333;28;20035;-70
2021/03/08 04:43:17;;;;;;;8.02;2.25;;;8.30;70.40;;;;;;5113573;28;20126;-70
2021/03/08 04:45:42;;;;;;;18.77;2.17;;;8.20;70.30;;;;;;5114118;28;20043;-71
2021/03/08 04:48:09;;;;;;;8.35;1.70;;;8.20;70.30;;;;;;5113496;28;20032;-70
2021/03/08 04:50:36;;;;;;;7.88;1.55;;;8.20;70.30;;;;;;5113643;28;20062;-71
2021/03/08 04:53:03;;;;;;;18.77;2.33;;;8.20;70.30;;;;;;5114096;28;20032;-70
2021/03/08 04:55:31;;;;;;;11.48;1.63;;;8.20;70.20;;;;;;5114137;28;20051;-70
2021/03/08 04:57:58;;;;;;;7.07;1.83;;;8.20;70.20;;;;;;5113495;28;20036;-70
2021/03/08 05:00:24;;;;;;;14.57;2.00;;;8.20;70.10;;;;;;5114078;28;20490;-70
2021/03/08 05:02:53;;;;;;;16.17;1.98;;;8.10;69.90;;;;;;5112277;28;20043;-70
2021/03/08 05:05:22;;;;;;;3.60;1.73;;;8.10;69.90;;;;;;5113579;28;20085;-69
2021/03/08 05:07:51;;;;;;;7.07;2.05;;;8.10;69.90;;;;;;5113199;28;20471;-70
2021/03/08 05:10:20;;;;;;;16.35;2.22;;;8.10;69.80;;;;;;5110863;28;20107;-70
2021/03/08 05:12:48;;;;;;;8.50;1.92;;;8.00;69.70;;;;;;5113668;28;20038;-70
2021/03/08 05:15:14;;;;;;;7.38;1.65;;;8.00;69.70;;;;;;5113599;28;20163;-71
2021/03/08 05:17:41;;;;;;;5.53;1.88;;;8.00;69.60;;;;;;5113153;28;20127;-71
2021/03/08 05:20:14;;;;;;;7.72;2.67;;;7.90;69.50;;;;;;5112789;28;20020;-71
2021/03/08 05:22:41;;;;;;;13.70;2.20;;;7.90;69.50;;;;;;5113510;28;20463;-70
2021/03/08 05:25:08;;;;;;;7.20;1.85;;;7.90;69.50;;;;;;5112757;28;20056;-71
2021/03/08 05:27:35;;;;;;;6.05;1.83;;;7.90;69.40;;;;;;5113426;28;20036;-71
2021/03/08 05:30:03;;;;;;;14.75;2.10;;;7.80;69.30;;;;;;5113257;28;20034;-70
2021/03/08 05:32:31;;;;;;;17.70;2.10;;;7.80;69.20;;;;;;5112818;28;20020;-70
2021/03/08 05:34:58;;;;;;;11.93;2.03;;;7.80;69.20;;;;;;5105956;28;20031;-70
2021/03/08 05:37:25;;;;;;;13.05;1.90;;;7.80;69.20;;;;;;5112434;28;20068;-71
2021/03/08 05:39:52;;;;;;;17.67;2.15;;;7.70;69.10;;;;;;5112248;28;20455;-70
2021/03/08 05:42:19;;;;;;;15.30;2.10;;;7.70;69.10;;;;;;5113039;28;20055;-71
2021/03/08 05:44:54;;;;;;;10.13;2.28;;;7.70;69.20;;;;;;5110148;28;20444;-71
2021/03/08 05:47:53;;;;;;;11.55;2.53;;;7.60;69.20;;;;;;5111315;28;20023;-70
2021/03/08 05:50:47;;;;;;;11.23;2.20;;;7.60;69.10;;;;;;5112411;28;20030;-70
2021/03/08 05:53:43;;;;;;;8.07;2.20;;;7.60;68.90;;;;;;5109514;28;20024;-70
2021/03/08 05:56:27;;;;;;;12.40;2.78;;;7.50;69.00;;;;;;5110880;28;20034;-71
2021/03/08 05:59:14;;;;;;;8.30;2.10;;;7.50;68.90;;;;;;5104451;28;20056;-71
2021/03/08 06:01:40;;;;;;;11.43;1.80;;;7.40;68.80;;;;;;5113465;28;20032;-71
2021/03/08 06:04:28;;;;;;;12.13;2.03;;;7.40;68.90;;;;;;5112264;28;20470;-71
2021/03/08 06:07:11;;;;;;;5.75;1.58;;;7.40;68.90;;;;;;5111970;28;20039;-71
2021/03/08 06:09:47;;;;;;;14.68;2.63;;;7.30;68.90;;;;;;5110563;28;20031;-70
2021/03/08 06:12:17;;;;;;;9.38;2.13;;;7.30;69.00;;;;;;5112811;28;20039;-82
2021/03/08 06:14:45;;;;;;;10.45;2.17;;;7.30;69.00;;;;;;5111349;28;20028;-71
2021/03/08 06:17:18;;;;;;;9.48;2.03;;;7.20;68.90;;;;;;5112043;28;20023;-71
2021/03/08 06:19:45;;;;;;;8.60;2.03;;;7.20;68.90;;;;;;5111495;28;20081;-71
2021/03/08 06:22:15;;;;;;;9.80;2.25;;;7.20;68.90;;;;;;5111839;28;20280;-70
2021/03/08 06:24:43;;;;;;;12.00;2.15;;;7.20;68.90;;;;;;5112675;28;20020;-71
2021/03/08 06:27:11;;;;;;;6.28;1.80;;;7.20;68.90;;;;;;5111499;28;20040;-70
2021/03/08 06:29:39;;;;;;;9.00;1.80;;;7.10;69.50;;;;;;5112658;28;20088;-70
2021/03/08 06:32:05;;;;;;;8.88;2.53;;;7.10;68.90;;;;;;5103555;28;20027;-70
2021/03/08 06:34:32;;;;;;;10.48;1.92;;;7.10;69.00;;;;;;5102690;28;20035;-70
2021/03/08 06:37:06;;;;;;;12.32;1.85;;;7.10;69.00;;;;;;5112643;28;20036;-71
2021/03/08 06:39:36;;;;;;;7.03;1.90;;;7.10;69.00;;;;;;5110996;28;20027;-76
2021/03/08 06:42:03;;;;;;;8.55;1.95;;;7.00;69.00;;;;;;5095702;28;20036;-72
2021/03/08 06:44:30;;;;;;;15.75;3.63;;;7.00;69.50;;;;;;5097199;28;20063;-74
2021/03/08 06:46:56;;;;;;;9.77;2.28;;;7.10;69.80;;;;;;5094706;28;20115;-73
2021/03/08 06:49:22;;;;;;;11.82;2.38;;;7.00;69.70;;;;;;5110742;28;20028;-72
2021/03/08 06:52:10;;;;;;;7.93;1.90;;;7.00;69.70;;;;;;5112346;28;20130;-71
2021/03/08 06:54:38;;;;;;;12.48;6.65;;;7.00;69.70;;;;;;5111969;28;20482;-74
2021/03/08 06:57:26;;;;;;;12.60;3.65;;;7.00;69.60;;;;;;5111562;28;20040;-73
2021/03/08 07:00:00;;;;;;;8.40;2.80;;;7.00;69.60;;;;;;5106403;28;20107;-72
2021/03/08 07:02:46;;;;;;;18.73;3.42;;;7.00;69.90;;;;;;5108186;28;20031;-71
2021/03/08 07:05:24;;;;;;;32.30;3.28;;;7.00;70.00;;;;;;5111287;28;20028;-71
2021/03/08 07:07:58;;;;;;;8.55;2.13;;;7.00;70.00;;;;;;5114134;28;20035;-71
2021/03/08 07:10:38;;;;;;;10.20;2.17;;;7.00;70.00;;;;;;5115901;28;20036;-71
2021/03/08 07:13:08;;;;;;;13.10;2.17;;;7.00;70.20;;;;;;5101763;27;20040;-71
2021/03/08 07:15:51;;;;;;;12.25;2.35;;;7.00;70.40;;;;;;5116229;28;20028;-71
2021/03/08 07:18:20;;;;;;;9.15;2.38;;;6.90;70.60;;;;;;5115565;28;20391;-71
2021/03/08 07:20:46;;;;;;;8.20;2.03;;;6.90;70.60;;;;;;5116167;28;20502;-71
2021/03/08 07:23:23;;;;;;;22.38;2.25;;;7.00;70.70;;;;;;5115858;28;20027;-71
2021/03/08 07:26:07;;;;;;;10.15;2.30;;;7.00;70.80;;;;;;5115957;28;20043;-71
2021/03/08 07:28:33;;;;;;;14.33;2.60;;;7.00;71.00;;;;;;5115520;28;20043;-71
2021/03/08 07:30:59;;;;;;;12.90;2.55;;;7.00;71.00;;;;;;5115318;28;20078;-71
2021/03/08 07:33:25;;;;;;;16.08;3.03;;;7.00;71.00;;;;;;5115736;28;20247;-71
2021/03/08 07:35:53;;;;;;;16.10;2.47;;;7.00;71.00;;;;;;5115752;28;20072;-71
2021/03/08 07:38:45;;;;;;;12.70;2.55;;;7.00;71.10;;;;;;5115401;28;20039;-71
2021/03/08 07:41:21;;;;;;;10.07;2.50;;;7.00;71.10;;;;;;5092055;28;20536;-71
2021/03/08 07:44:04;;;;;;;12.55;2.65;;;7.10;71.20;;;;;;5112576;28;20031;-71
2021/03/08 07:46:35;;;;;;;12.88;2.88;;;7.10;71.20;;;;;;5115181;28;20486;-71
2021/03/08 07:49:08;;;;;;;10.35;2.78;;;7.10;71.30;;;;;;5111277;28;20031;-72
2021/03/08 07:51:35;;;;;;;17.10;2.30;;;7.10;71.40;;;;;;5105902;28;20039;-71
2021/03/08 07:54:04;;;;;;;12.93;3.42;;;7.10;71.40;;;;;;5115257;28;20034;-71
2021/03/08 07:56:31;;;;;;;10.13;2.67;;;7.10;71.40;;;;;;5115640;28;20100;-71
2021/03/08 07:58:57;;;;;;;12.02;2.35;;;7.20;71.40;;;;;;5114575;28;20019;-71
2021/03/08 08:01:24;;;;;;;8.77;1.95;;;7.20;71.30;;;;;;5115415;28;20130;-71
2021/03/08 08:03:50;;;;;;;8.20;1.50;;;7.20;71.30;;;;;;5115262;28;20034;-68
2021/03/08 08:06:21;;;;;;;12.18;2.17;;;7.20;71.40;;;;;;5112898;28;20043;-71
2021/03/08 08:08:52;;;;;;;11.85;2.05;;;7.30;71.40;;;;;;5114894;28;20032;-71
2021/03/08 08:11:19;;;;;;;13.07;2.67;;;7.30;71.60;;;;;;5114575;28;20036;-70
2021/03/08 08:14:02;;;;;;;8.13;2.17;;;7.30;71.40;;;;;;5114550;28;20024;-70
2021/03/08 08:16:34;;;;;;;19.95;2.80;;;7.30;71.20;;;;;;5112768;27;20550;-71
2021/03/08 08:19:06;;;;;;;18.92;2.55;;;7.40;71.20;;;;;;5102623;28;20035;-70
2021/03/08 08:21:37;;;;;;;8.07;2.22;;;7.40;71.00;;;;;;5114118;28;20027;-71
2021/03/08 08:24:09;;;;;;;11.80;2.05;;;7.40;71.20;;;;;;5114836;28;20059;-71
2021/03/08 08:26:35;;;;;;;6.75;1.52;;;7.40;71.30;;;;;;5114217;27;20091;-71
2021/03/08 08:29:02;;;;;;;13.93;3.03;;;7.30;71.40;;;;;;5114357;28;20079;-72
2021/03/08 08:31:28;;;;;;;13.70;2.72;;;7.40;71.60;;;;;;5114961;28;20419;-71
2021/03/08 08:33:54;;;;;;;11.88;2.33;;;7.40;71.70;;;;;;5113917;28;20070;-72
2021/03/08 08:36:25;;;;;;;15.02;3.40;;;7.40;71.90;;;;;;5114699;28;20042;-71
2021/03/08 08:38:53;;;;;;;8.05;2.17;;;7.40;72.30;;;;;;5114452;28;20038;-71
2021/03/08 08:41:26;;;;;;;10.57;2.05;;;7.50;72.30;;;;;;5113857;28;20156;-71
2021/03/08 08:44:07;;;;;;;11.35;3.20;;;7.50;72.30;;;;;;5114469;28;20026;-71
2021/03/08 08:46:34;;;;;;;11.63;2.22;;;7.50;72.30;;;;;;5114107;28;20505;-71
2021/03/08 08:49:11;;;;;;;7.45;2.30;;;7.60;72.10;;;;;;5113450;28;20016;-71
2021/03/08 08:51:55;;;;;;;9.68;1.92;;;7.60;72.20;;;;;;5114331;28;20478;-72
2021/03/08 08:54:26;;;;;;;12.00;2.25;;;7.70;72.10;;;;;;5113973;28;20027;-71
2021/03/08 08:56:58;;;;;;;11.65;2.38;;;7.70;71.80;;;;;;5113745;28;20432;-71
2021/03/08 08:59:25;;;;;;;15.27;2.60;;;7.70;71.70;;;;;;5114224;28;20042;-72
2021/03/08 09:02:11;;;;;;;11.25;2.67;;;7.70;71.80;;;;;;5113718;28;20023;-72
2021/03/08 09:04:37;;;;;;;8.18;2.78;;;7.80;71.70;;;;;;5111864;28;20028;-72
2021/03/08 09:07:20;;;;;;;7.20;1.95;;;7.80;71.70;;;;;;5113970;28;20364;-72
2021/03/08 09:09:51;;;;;;;13.07;2.88;;;7.80;72.10;;;;;;5113564;28;20110;-71
2021/03/08 09:12:35;;;;;;;12.85;2.47;;;7.80;71.60;;;;;;5114017;28;20078;-71
2021/03/08 09:15:12;;;;;;;14.90;3.05;;;7.80;71.50;;;;;;5113509;28;20028;-72
2021/03/08 09:17:51;;;;;;;6.70;2.08;;;7.90;71.60;;;;;;5113298;28;20383;-72
2021/03/08 09:20:22;;;;;;;9.13;2.13;;;7.90;71.50;;;;;;5113797;28;20059;-71
2021/03/08 09:22:59;;;;;;;11.35;2.40;;;7.90;71.50;;;;;;5113723;28;20360;-72
2021/03/08 09:25:26;;;;;;;16.55;2.95;;;7.90;71.20;;;;;;5113484;28;20066;-72
2021/03/08 09:27:58;;;;;;;15.68;3.75;;;8.00;71.20;;;;;;5113817;28;20056;-72
2021/03/08 09:30:35;;;;;;;17.85;3.08;;;8.00;70.80;;;;;;5112811;28;20093;-72
2021/03/08 09:33:06;;;;;;;12.55;2.95;;;8.00;70.60;;;;;;5113613;28;20482;-71
2021/03/08 09:35:36;;;;;;;14.98;2.90;;;8.00;70.50;;;;;;5113307;28;20035;-72
2021/03/08 09:38:09;;;;;;;14.20;2.63;;;8.10;70.30;;;;;;5113278;28;20031;-72
2021/03/08 09:40:43;;;;;;;15.25;3.00;;;8.10;70.10;;;;;;5113543;28;20023;-72
2021/03/08 09:43:32;;;;;;;15.73;2.60;;;8.20;70.40;;;;;;5113279;28;20118;-71
2021/03/08 09:46:00;;;;;;;19.73;2.53;;;8.20;70.40;;;;;;5099687;28;20073;-72
2021/03/08 09:48:27;;;;;;;9.88;3.13;;;8.20;70.40;;;;;;5113629;28;20030;-71
2021/03/08 09:50:52;;;;;;;8.70;2.20;;;8.20;70.00;;;;;;5113227;28;20111;-72
2021/03/08 09:53:18;;;;;;;7.85;1.75;;;8.30;70.40;;;;;;5113054;28;20102;-72
2021/03/08 09:55:44;;;;;;;4.90;1.83;;;8.30;70.80;;;;;;5113230;28;20023;-71
2021/03/08 09:58:15;;;;;;;14.18;2.88;;;8.20;70.90;;;;;;5112376;28;20039;-71
2021/03/08 10:00:43;;;;;;;13.38;2.70;;;8.20;70.90;;;;;;5111838;28;20040;-71
2021/03/08 10:03:10;;;;;;;10.05;2.35;;;8.30;71.00;;;;;;5113416;28;20034;-71
2021/03/08 10:05:42;;;;;;;9.00;1.75;;;8.20;70.80;;;;;;5112179;28;20418;-71
2021/03/08 10:08:10;;;;;;;9.60;2.20;;;8.30;70.40;;;;;;5113180;28;20121;-71
2021/03/08 10:10:37;;;;;;;18.75;4.45;;;8.30;70.50;;;;;;5112859;28;20548;-71
2021/03/08 10:13:04;;;;;;;13.02;2.53;;;8.40;70.20;;;;;;5112366;28;20028;-72
2021/03/08 10:15:46;;;;;;;10.27;2.17;;;8.40;69.30;;;;;;5113345;28;20036;-71
2021/03/08 10:18:14;;;;;;;13.68;2.47;;;8.50;69.30;;;;;;5112627;28;20119;-77
2021/03/08 10:20:52;;;;;;;6.97;2.13;;;8.60;69.10;;;;;;5112672;28;20043;-72
2021/03/08 10:23:32;;;;;;;9.93;1.80;;;8.70;69.90;;;;;;5112357;28;20047;-71
2021/03/08 10:26:18;;;;;;;16.17;2.83;;;8.70;70.00;;;;;;5112857;28;20036;-76
2021/03/08 10:28:51;;;;;;;11.40;2.53;;;8.70;69.60;;;;;;5112172;28;20040;-72
2021/03/08 10:31:43;;;;;;;11.52;2.92;;;8.70;69.90;;;;;;5110260;28;20038;-75
2021/03/08 10:34:13;;;;;;;7.25;2.00;;;8.80;69.10;;;;;;5106197;28;20067;-72
2021/03/08 10:36:42;;;;;;;13.82;2.80;;;8.90;69.20;;;;;;5096387;28;20039;-73
2021/03/08 10:39:10;;;;;;;9.10;2.08;;;8.90;69.20;;;;;;5103301;28;20385;-75
2021/03/08 10:41:37;;;;;;;7.28;1.90;;;8.90;68.80;;;;;;5106851;28;20031;-76
2021/03/08 10:44:05;;;;;;;9.40;2.88;;;8.90;69.50;;;;;;5110046;28;20024;-75
2021/03/08 10:46:39;;;;;;;8.18;2.22;;;8.90;69.70;;;;;;5115984;28;20119;-75
2021/03/08 10:49:05;;;;;;;;;;;8.90;68.80;;;;;;5114825;28;20382;-84
2021/03/08 10:51:33;;;;;;;8.38;2.55;;;9.00;69.10;;;;;;5117132;28;20282;-85
2021/03/08 10:54:03;;;;;;;15.52;2.72;;;9.00;68.50;;;;;;5108903;28;20031;-87
2021/03/08 10:56:30;;;;;;;9.80;2.78;;;9.10;68.50;;;;;;5113278;28;20390;-84
2021/03/08 10:58:57;;;;;;;15.48;2.83;;;9.10;67.90;;;;;;5116854;28;20039;-70
2021/03/08 11:01:24;;;;;;;11.00;2.42;;;9.20;67.30;;;;;;5115747;28;20032;-73
2021/03/08 11:03:50;;;;;;;4.93;1.50;;;9.20;66.80;;;;;;5116302;28;20036;-78
2021/03/08 11:06:21;;;;;;;11.43;2.67;;;9.30;67.10;;;;;;5107804;28;20439;-78
2021/03/08 11:09:00;;;;;;;9.55;2.38;;;9.30;66.90;;;;;;5115244;27;20035;-79
2021/03/08 11:11:31;;;;;;;9.02;2.40;;;9.40;67.70;;;;;;5115619;28;20577;-77
2021/03/08 11:14:02;;;;;;;11.60;2.05;;;9.30;67.10;;;;;;5115918;28;20050;-81
2021/03/08 11:16:29;;;;;;;12.05;2.05;;;9.40;67.00;;;;;;5115023;28;20109;-79
2021/03/08 11:19:33;;;;;;;7.40;2.35;;;9.50;68.20;;;;;;5107503;28;20039;-79
2021/03/08 11:22:04;;;;;;;11.18;2.90;;;9.50;69.10;;;;;;5107848;28;20033;-78
2021/03/08 11:24:40;;;;;;;10.57;3.15;;;9.40;67.00;;;;;;5115301;28;20024;-73
2021/03/08 11:27:16;;;;;;;6.28;2.38;;;9.50;66.80;;;;;;5115346;28;20043;-73
2021/03/08 11:30:06;;;;;;;11.30;2.38;;;9.50;65.00;;;;;;5114862;28;20035;-74
2021/03/08 11:32:34;;;;;;;7.95;2.10;;;9.50;64.90;;;;;;5113200;28;20019;-73
2021/03/08 11:35:00;;;;;;;7.72;2.28;;;9.60;67.40;;;;;;5115293;28;20031;-72
2021/03/08 11:37:30;;;;;;;4.50;1.10;;;9.60;67.30;;;;;;5115098;28;20058;-74
2021/03/08 11:39:57;;;;;;;2.78;1.35;;;9.60;69.40;;;;;;5115428;28;20039;-74
2021/03/08 11:42:25;;;;;;;2.78;1.38;;;9.50;70.70;;;;;;5114912;28;20023;-74
2021/03/08 11:44:52;;;;;;;2.03;1.13;;;9.50;71.30;;;;;;5114744;28;20039;-74
2021/03/08 11:47:18;;;;;;;8.35;1.40;;;9.50;72.40;;;;;;5115302;28;20055;-74
2021/03/08 11:49:44;;;;;;;6.03;1.92;;;9.40;71.50;;;;;;5115246;28;20031;-74
2021/03/08 11:52:10;;;;;;;11.50;2.42;;;9.40;70.80;;;;;;5114411;28;20106;-74
2021/03/08 11:54:36;;;;;;;2.97;1.00;;;9.50;70.20;;;;;;5115098;28;20102;-71
2021/03/08 11:57:04;;;;;;;3.00;1.30;;;9.50;70.80;;;;;;5114854;28;20492;-71
2021/03/08 11:59:30;;;;;;;5.28;0.75;;;9.60;71.60;;;;;;5114283;27;20040;-71
2021/03/08 12:01:59;;;;;;;2.72;1.02;;;9.50;72.30;;;;;;5115578;28;20367;-71
2021/03/08 12:04:25;;;;;;;8.50;2.20;;;9.60;72.60;;;;;;5115113;28;20152;-71
2021/03/08 12:06:51;;;;;;;8.35;2.55;;;9.60;70.90;;;;;;5114620;28;20039;-71
2021/03/08 12:09:17;;;;;;;10.15;2.70;;;9.70;69.40;;;;;;5115185;28;20026;-71
2021/03/08 12:11:43;;;;;;;9.82;1.58;;;9.80;69.00;;;;;;5114278;28;20020;-70
2021/03/08 12:14:08;;;;;;;13.23;1.77;;;9.90;69.90;;;;;;5103826;28;20032;-71
2021/03/08 12:16:34;;;;;;;10.05;1.85;;;9.90;69.90;;;;;;5111697;28;20493;-70
2021/03/08 12:19:00;;;;;;;8.52;2.63;;;10.00;69.00;;;;;;5114668;28;20059;-70
2021/03/08 12:21:26;;;;;;;7.15;1.05;;;10.00;67.70;;;;;;5115039;27;20032;-71
2021/03/08 12:23:52;;;;;;;7.88;1.80;;;10.10;67.50;;;;;;5114533;28;20074;-71
2021/03/08 12:26:19;;;;;;;2.20;1.45;;;10.20;68.80;;;;;;5113824;28;20468;-71
2021/03/08 12:28:46;;;;;;;3.15;1.45;;;10.30;70.70;;;;;;5113807;28;20034;-72
2021/03/08 12:31:12;;;;;;;3.90;1.58;;;10.30;71.10;;;;;;5109110;28;20039;-80
2021/03/08 12:33:38;;;;;;;6.47;1.35;;;10.30;71.30;;;;;;5108717;28;20023;-73
2021/03/08 12:36:05;;;;;;;2.15;0.85;;;10.30;71.80;;;;;;5110056;28;20368;-72
2021/03/08 12:38:31;;;;;;;10.02;1.30;;;10.30;72.70;;;;;;5113809;28;20471;-77
2021/03/08 12:40:57;;;;;;;2.35;0.93;;;10.30;72.20;;;;;;5113821;28;20034;-73
2021/03/08 12:43:23;;;;;;;0.50;0.47;;;10.20;72.30;;;;;;5093526;28;20430;-72
2021/03/08 12:45:48;;;;;;;1.90;1.33;;;10.20;72.70;;;;;;5100039;28;20040;-69
2021/03/08 12:48:14;;;;;;;2.13;0.65;;;10.20;72.70;;;;;;5101595;28;20069;-76
2021/03/08 12:50:40;;;;;;;7.32;2.20;;;10.20;72.80;;;;;;5105934;28;20031;-76
2021/03/08 12:53:06;;;;;;;2.10;1.00;;;10.20;71.00;;;;;;5106986;28;20032;-81
2021/03/08 12:55:32;;;;;;;6.85;1.77;;;10.20;70.90;;;;;;5113451;28;20036;-81
2021/03/08 12:57:57;;;;;;;1.00;0.82;;;10.20;71.20;;;;;;5113967;28;20035;-81
2021/03/08 13:00:24;;;;;;;11.20;2.55;;;10.20;71.80;;;;;;5113521;28;20039;-70
2021/03/08 13:02:49;;;;;;;18.02;3.40;;;10.30;71.20;;;;;;5113091;28;20032;-71
2021/03/08 13:05:15;;;;;;;11.05;1.83;;;10.30;70.60;;;;;;5113423;28;20114;-70
2021/03/08 13:07:40;;;;;;;9.55;2.00;;;10.30;70.10;;;;;;5113672;28;20059;-71